Time;durP1;ratioP1;P1;durP2;ratioP2;P2;SDS_P1;SDS_P2;PMS_P1;PMS_P2;Temp;Humidity;BMP_temperature;BMP_pressure;BME280_temperature;BME280_humidity;BME280_pressure;Samples;Min_cycle;Max_cycle;Signal;HPM_P1;HPM_P2
2022/12/20 00:00:21;;;;;;;1.60;1.50;;;14.20;64.90;;;;;;4997831;28;20026;-78
2022/12/20 00:02:47;;;;;;;2.40;1.67;;;14.20;64.90;;;;;;4997259;28;20046;-78
2022/12/20 00:05:12;;;;;;;2.15;1.50;;;14.20;64.90;;;;;;5015117;28;20030;-78
2022/12/20 00:07:38;;;;;;;2.00;1.58;;;14.20;64.90;;;;;;4997478;28;20026;-78
2022/12/20 00:10:04;;;;;;;1.80;1.17;;;14.20;64.90;;;;;;5014898;28;20038;-78
2022/12/20 00:12:30;;;;;;;1.40;1.20;;;14.20;64.80;;;;;;4997041;28;20034;-77
2022/12/20 00:14:55;;;;;;;4.20;1.30;;;14.20;64.80;;;;;;5014729;28;20076;-78
2022/12/20 00:17:21;;;;;;;1.42;1.23;;;14.20;64.80;;;;;;5014820;28;20076;-77
2022/12/20 00:19:47;;;;;;;3.42;1.67;;;14.20;64.80;;;;;;5014943;28;20040;-78
2022/12/20 00:22:12;;;;;;;2.50;1.58;;;14.20;64.80;;;;;;5014679;28;20439;-77
2022/12/20 00:24:38;;;;;;;1.38;1.08;;;14.20;64.90;;;;;;5014615;28;20068;-78
2022/12/20 00:27:03;;;;;;;1.60;1.30;;;14.20;64.80;;;;;;5014551;28;20076;-78
2022/12/20 00:29:29;;;;;;;1.80;1.20;;;14.20;64.80;;;;;;5014561;28;20033;-78
2022/12/20 00:31:55;;;;;;;2.28;1.40;;;14.20;64.80;;;;;;5014126;28;20101;-78
2022/12/20 00:34:20;;;;;;;3.10;1.58;;;14.20;64.80;;;;;;5014632;28;20034;-78
2022/12/20 00:36:46;;;;;;;1.35;1.25;;;14.20;64.80;;;;;;5014508;28;20057;-77
2022/12/20 00:39:11;;;;;;;1.48;1.38;;;14.20;64.80;;;;;;5014564;28;20044;-77
2022/12/20 00:41:37;;;;;;;2.05;1.35;;;;;;;;;;5014247;28;20045;-78
2022/12/20 00:44:03;;;;;;;2.47;1.10;;;14.20;64.20;;;;;;5014269;28;20025;-78
2022/12/20 00:46:30;;;;;;;1.73;1.33;;;14.20;64.80;;;;;;5014133;28;20051;-78
2022/12/20 00:48:56;;;;;;;1.15;1.13;;;14.20;64.80;;;;;;5014145;28;20033;-77
2022/12/20 00:51:25;;;;;;;1.42;1.17;;;14.20;64.80;;;;;;5014116;28;20030;-78
2022/12/20 00:53:51;;;;;;;1.90;1.20;;;14.20;64.30;;;;;;5014030;28;20029;-78
2022/12/20 00:56:17;;;;;;;2.35;1.20;;;14.20;64.80;;;;;;5014182;28;20365;-78
2022/12/20 00:58:43;;;;;;;1.58;1.23;;;14.20;64.80;;;;;;5014006;28;20384;-78
2022/12/20 01:01:23;;;;;;;1.95;1.30;;;14.20;78.80;;;;;;5014129;28;20022;-78
2022/12/20 01:03:50;;;;;;;1.30;1.20;;;14.20;64.90;;;;;;5013822;28;20057;-78
2022/12/20 01:06:16;;;;;;;1.65;1.40;;;14.20;64.80;;;;;;5013844;28;20029;-77
2022/12/20 01:08:41;;;;;;;1.33;0.95;;;14.20;64.80;;;;;;5013809;28;20105;-77
2022/12/20 01:11:07;;;;;;;1.25;0.93;;;14.20;64.90;;;;;;5013744;28;20108;-78
2022/12/20 01:13:34;;;;;;;1.23;1.10;;;14.20;64.90;;;;;;5013829;28;20018;-78
2022/12/20 01:16:05;;;;;;;1.95;1.25;;;14.20;64.90;;;;;;5013673;28;20033;-78
2022/12/20 01:18:31;;;;;;;1.42;1.00;;;14.20;64.80;;;;;;5013753;28;20022;-78
2022/12/20 01:21:04;;;;;;;1.88;1.30;;;14.20;64.90;;;;;;5013684;28;20022;-78
2022/12/20 01:23:30;;;;;;;2.13;1.45;;;14.20;65.00;;;;;;5013460;28;20108;-78
2022/12/20 01:25:59;;;;;;;1.27;1.10;;;14.20;65.70;;;;;;5013676;28;20100;-78
2022/12/20 01:28:25;;;;;;;1.15;1.00;;;14.20;64.90;;;;;;4995835;28;20121;-78
2022/12/20 01:30:51;;;;;;;2.10;1.30;;;14.20;64.90;;;;;;5013396;28;20044;-78
2022/12/20 01:33:16;;;;;;;1.17;0.95;;;14.20;64.90;;;;;;5013684;28;20022;-78
2022/12/20 01:35:42;;;;;;;1.55;1.17;;;14.20;65.00;;;;;;5013388;28;20022;-78
2022/12/20 01:38:08;;;;;;;1.15;1.05;;;;;;;;;;5013289;28;20030;-77
2022/12/20 01:40:33;;;;;;;1.85;1.25;;;14.30;64.40;;;;;;5013283;28;20084;-78
2022/12/20 01:42:59;;;;;;;1.42;1.30;;;14.20;65.00;;;;;;5012654;28;20069;-78
2022/12/20 01:45:28;;;;;;;1.27;1.05;;;14.20;65.00;;;;;;5013115;28;20480;-78
2022/12/20 01:47:56;;;;;;;1.02;0.93;;;14.30;65.00;;;;;;5013391;28;20014;-78
2022/12/20 01:50:22;;;;;;;2.45;1.55;;;14.20;65.10;;;;;;5013111;28;20030;-78
2022/12/20 01:52:48;;;;;;;1.25;1.02;;;14.30;65.20;;;;;;4995421;28;20501;-78
2022/12/20 01:55:26;;;;;;;1.30;1.20;;;14.30;65.80;;;;;;4995374;28;20030;-78
2022/12/20 01:57:59;;;;;;;2.55;1.40;;;14.30;65.20;;;;;;5013068;28;20013;-78
2022/12/20 02:00:26;;;;;;;2.45;1.10;;;14.30;65.10;;;;;;5013034;28;20385;-78
2022/12/20 02:02:53;;;;;;;1.88;1.27;;;14.30;65.30;;;;;;5012736;28;20045;-78
2022/12/20 02:05:21;;;;;;;1.10;1.00;;;14.30;65.20;;;;;;5012834;28;20029;-78
2022/12/20 02:07:50;;;;;;;1.77;1.35;;;14.30;65.20;;;;;;5012815;28;20032;-78
2022/12/20 02:10:18;;;;;;;2.10;1.20;;;14.30;65.20;;;;;;5012766;28;20084;-78
2022/12/20 02:12:46;;;;;;;2.58;1.40;;;14.30;65.20;;;;;;5012825;28;20022;-78
2022/12/20 02:15:14;;;;;;;2.70;0.85;;;14.30;65.20;;;;;;5012744;28;20052;-78
2022/12/20 02:18:01;;;;;;;1.20;1.10;;;14.30;65.20;;;;;;5012634;28;20030;-78
2022/12/20 02:20:43;;;;;;;1.13;1.00;;;14.30;65.40;;;;;;5012678;28;20376;-78
2022/12/20 02:23:46;;;;;;;1.10;1.00;;;14.30;65.20;;;;;;5012632;28;20025;-78
2022/12/20 02:26:24;;;;;;;1.13;1.02;;;14.20;65.10;;;;;;5012655;28;20111;-78
2022/12/20 02:28:55;;;;;;;1.25;1.10;;;14.30;65.10;;;;;;5012763;28;20033;-78
2022/12/20 02:31:32;;;;;;;1.27;1.17;;;14.30;65.20;;;;;;5012656;28;20172;-78
2022/12/20 02:33:59;;;;;;;1.35;0.90;;;14.30;65.20;;;;;;4994995;28;20473;-78
2022/12/20 02:36:24;;;;;;;1.58;1.20;;;14.30;65.10;;;;;;4994830;28;20029;-78
2022/12/20 02:38:51;;;;;;;0.98;0.82;;;14.30;65.20;;;;;;5012431;28;20484;-78
2022/12/20 02:41:25;;;;;;;2.50;1.00;;;14.30;65.20;;;;;;5012431;28;20046;-78
2022/12/20 02:46:45;;;;;;;1.63;1.27;;;14.30;65.10;;;;;;5012915;28;20045;-78
2022/12/20 02:49:15;;;;;;;2.80;0.80;;;14.30;65.10;;;;;;5012354;28;20041;-78
2022/12/20 02:51:44;;;;;;;1.13;0.85;;;14.30;65.10;;;;;;5012276;28;20595;-78
2022/12/20 02:54:10;;;;;;;1.13;0.90;;;14.30;65.10;;;;;;5013126;28;20091;-78
2022/12/20 02:56:50;;;;;;;1.15;1.00;;;14.30;64.60;;;;;;5016557;28;20025;-78
2022/12/20 02:59:38;;;;;;;1.83;1.08;;;14.30;65.20;;;;;;5016359;28;20025;-78
2022/12/20 03:02:05;;;;;;;1.50;1.00;;;14.30;65.10;;;;;;4998321;28;20128;-78
2022/12/20 03:04:35;;;;;;;1.48;0.98;;;14.30;65.10;;;;;;5016341;28;20100;-78
2022/12/20 03:07:13;;;;;;;2.38;0.93;;;14.30;65.20;;;;;;5016213;28;20022;-78
2022/12/20 03:09:41;;;;;;;1.42;1.05;;;14.30;65.10;;;;;;5016005;28;20069;-78
2022/12/20 03:12:10;;;;;;;1.98;1.00;;;14.30;64.60;;;;;;5015860;28;20025;-78
2022/12/20 03:14:36;;;;;;;1.65;1.10;;;14.20;65.20;;;;;;5016016;28;20018;-78
2022/12/20 03:17:03;;;;;;;1.30;1.00;;;;;;;;;;5015889;28;20033;-78
2022/12/20 03:19:29;;;;;;;1.50;1.23;;;14.30;64.60;;;;;;4998366;28;20036;-78
2022/12/20 03:21:54;;;;;;;2.63;0.88;;;14.30;65.10;;;;;;5015950;28;20049;-78
2022/12/20 03:24:20;;;;;;;1.70;1.13;;;14.30;65.20;;;;;;5015930;28;20061;-78
2022/12/20 03:26:46;;;;;;;1.10;0.90;;;14.30;65.80;;;;;;5015726;28;20022;-78
2022/12/20 03:29:11;;;;;;;1.58;1.40;;;14.30;65.10;;;;;;5015760;28;20108;-78
2022/12/20 03:31:37;;;;;;;1.13;0.90;;;14.30;65.20;;;;;;5015605;28;20108;-78
2022/12/20 03:34:03;;;;;;;1.73;1.15;;;14.30;65.20;;;;;;5015663;28;20029;-78
2022/12/20 03:36:29;;;;;;;0.98;0.88;;;14.30;65.20;;;;;;5015587;28;20052;-78
2022/12/20 03:38:55;;;;;;;2.50;1.20;;;14.30;65.20;;;;;;5015595;28;20026;-78
2022/12/20 03:41:21;;;;;;;1.75;1.17;;;14.30;65.10;;;;;;5015604;28;20033;-78
2022/12/20 03:43:48;;;;;;;1.98;1.02;;;14.30;65.00;;;;;;5015318;28;20069;-78
2022/12/20 03:46:14;;;;;;;1.20;0.98;;;14.40;65.20;;;;;;5015382;28;20037;-78
2022/12/20 03:48:40;;;;;;;1.63;0.98;;;;;;;;;;5015349;28;20495;-78
2022/12/20 03:51:06;;;;;;;2.35;1.10;;;14.30;64.70;;;;;;5015478;28;20041;-78
2022/12/20 03:53:32;;;;;;;1.38;0.93;;;14.30;65.10;;;;;;5015263;28;20018;-78
2022/12/20 03:55:58;;;;;;;1.90;1.00;;;14.30;65.90;;;;;;4997668;28;20120;-78
2022/12/20 03:58:23;;;;;;;2.15;1.40;;;14.30;65.20;;;;;;5015223;28;20061;-78
2022/12/20 04:00:49;;;;;;;2.85;1.50;;;14.30;65.40;;;;;;5015128;28;20026;-78
2022/12/20 04:03:15;;;;;;;1.27;1.10;;;14.30;65.30;;;;;;5014836;28;20092;-78
2022/12/20 04:05:40;;;;;;;1.85;1.20;;;14.40;65.30;;;;;;4996535;28;20028;-78
2022/12/20 04:08:06;;;;;;;1.92;1.08;;;14.30;65.40;;;;;;5015040;28;20025;-78
2022/12/20 04:11:14;;;;;;;1.52;1.23;;;14.30;65.50;;;;;;5014856;28;20507;-78
2022/12/20 04:13:18;;;;;;;1.52;1.30;;;14.30;65.30;;;;;;5014613;28;20026;-78
2022/12/20 04:15:43;;;;;;;3.53;1.00;;;14.30;65.30;;;;;;5014821;28;20480;-78
2022/12/20 04:18:09;;;;;;;1.42;0.80;;;14.30;65.50;;;;;;5014598;28;20073;-78
2022/12/20 04:20:34;;;;;;;1.38;1.08;;;14.30;65.30;;;;;;5014864;28;20061;-78
2022/12/20 04:23:00;;;;;;;2.13;1.30;;;14.30;65.30;;;;;;5014751;28;20025;-78
2022/12/20 04:25:25;;;;;;;1.35;1.00;;;14.30;65.50;;;;;;5014668;28;20033;-78
2022/12/20 04:27:51;;;;;;;4.63;1.10;;;14.30;65.60;;;;;;5014673;28;20049;-78
2022/12/20 04:30:17;;;;;;;1.88;1.20;;;14.30;65.40;;;;;;5014502;28;20120;-78
2022/12/20 04:32:42;;;;;;;1.08;1.02;;;14.30;65.60;;;;;;5014561;28;20026;-78
2022/12/20 04:35:08;;;;;;;2.33;1.13;;;14.30;65.50;;;;;;5014469;28;20397;-78
2022/12/20 04:37:34;;;;;;;1.70;1.15;;;;;;;;;;5014559;28;20394;-78
2022/12/20 04:40:00;;;;;;;1.88;1.05;;;14.30;65.00;;;;;;5014372;28;20030;-78
2022/12/20 04:42:26;;;;;;;1.10;1.00;;;14.40;65.60;;;;;;5014397;28;20079;-78
2022/12/20 04:44:52;;;;;;;1.77;1.10;;;;;;;;;;5014326;28;20061;-78
2022/12/20 04:47:17;;;;;;;3.58;1.30;;;14.40;65.20;;;;;;5014287;28;20481;-78
2022/12/20 04:49:43;;;;;;;2.72;1.50;;;14.40;65.80;;;;;;5014166;28;20080;-78
2022/12/20 04:54:53;;;;;;;1.38;1.25;;;14.40;65.60;;;;;;5014199;28;20092;-78
2022/12/20 04:57:18;;;;;;;1.38;1.00;;;14.40;65.60;;;;;;5014127;28;20030;-78
2022/12/20 04:59:44;;;;;;;2.30;1.23;;;14.50;65.60;;;;;;5013972;28;20029;-78
2022/12/20 05:02:10;;;;;;;1.17;0.93;;;14.40;79.60;;;;;;5013705;28;20081;-78
2022/12/20 05:04:35;;;;;;;1.15;1.00;;;14.50;65.70;;;;;;5014001;28;20421;-78
2022/12/20 05:07:01;;;;;;;2.22;1.30;;;14.50;65.60;;;;;;5013811;28;20052;-78
2022/12/20 05:09:26;;;;;;;4.20;1.48;;;14.50;65.70;;;;;;5013753;28;20037;-78
2022/12/20 05:11:52;;;;;;;2.55;1.05;;;14.50;65.70;;;;;;5014064;28;20536;-78
2022/12/20 05:14:17;;;;;;;1.58;0.80;;;14.50;65.70;;;;;;5013655;28;20029;-78
2022/12/20 05:16:43;;;;;;;0.80;0.75;;;14.50;65.80;;;;;;5013664;28;20014;-78
2022/12/20 05:19:09;;;;;;;1.45;1.10;;;14.50;65.70;;;;;;4996026;28;20436;-78
2022/12/20 05:27:02;;;;;;;1.00;0.82;;;14.50;65.80;;;;;;5013493;28;20459;-78
2022/12/20 05:29:28;;;;;;;1.15;1.05;;;14.60;65.80;;;;;;5013444;28;20030;-78
2022/12/20 05:31:53;;;;;;;1.23;1.00;;;12.40;64.50;;;;;;5013535;28;20469;-78
2022/12/20 05:34:20;;;;;;;2.97;0.70;;;14.50;66.00;;;;;;5013366;28;20034;-77
2022/12/20 05:36:45;;;;;;;1.30;0.90;;;14.50;65.60;;;;;;4995647;28;20026;-77
2022/12/20 05:39:11;;;;;;;1.85;0.90;;;14.50;65.70;;;;;;5013194;28;20110;-78
2022/12/20 05:41:37;;;;;;;1.25;1.15;;;14.60;65.80;;;;;;5013167;28;20025;-77
2022/12/20 05:44:03;;;;;;;0.85;0.80;;;14.50;65.70;;;;;;5013449;28;20029;-77
2022/12/20 05:46:29;;;;;;;1.75;1.20;;;14.50;65.80;;;;;;4995477;28;20026;-77
2022/12/20 05:48:55;;;;;;;1.58;1.20;;;14.60;65.70;;;;;;5013120;28;20105;-78
2022/12/20 05:51:20;;;;;;;1.38;1.00;;;14.60;65.70;;;;;;5012968;28;20045;-77
2022/12/20 05:53:46;;;;;;;0.90;0.90;;;14.60;66.30;;;;;;5013063;28;20105;-77
2022/12/20 05:56:11;;;;;;;0.88;0.70;;;14.60;65.90;;;;;;4995285;28;20030;-77
2022/12/20 05:58:37;;;;;;;1.33;1.08;;;14.60;65.80;;;;;;5012874;28;20033;-76
2022/12/20 06:01:05;;;;;;;0.93;0.93;;;14.60;79.80;;;;;;4995327;28;20116;-77
2022/12/20 06:03:31;;;;;;;2.53;0.90;;;14.60;65.80;;;;;;4994876;28;20045;-77
2022/12/20 06:05:56;;;;;;;1.35;1.00;;;14.60;65.80;;;;;;5012872;28;20029;-77
2022/12/20 06:08:23;;;;;;;2.88;1.20;;;14.60;65.70;;;;;;4995328;28;20024;-77
2022/12/20 06:10:49;;;;;;;1.52;1.10;;;14.60;65.80;;;;;;5012838;28;20022;-76
2022/12/20 06:13:16;;;;;;;1.20;0.85;;;14.60;65.70;;;;;;5012599;28;20101;-77
2022/12/20 06:15:41;;;;;;;1.70;1.23;;;14.60;65.80;;;;;;5012761;28;20053;-77
2022/12/20 06:18:07;;;;;;;0.90;0.90;;;14.60;65.70;;;;;;5012603;28;20042;-76
2022/12/20 06:20:34;;;;;;;0.90;0.73;;;14.60;65.70;;;;;;4994731;28;20034;-81
2022/12/20 06:23:00;;;;;;;2.38;1.15;;;14.60;65.70;;;;;;5012587;28;20032;-80
2022/12/20 06:25:27;;;;;;;0.95;0.88;;;14.60;65.70;;;;;;5012528;28;20041;-80
2022/12/20 06:27:53;;;;;;;1.30;0.90;;;14.60;65.70;;;;;;5016050;28;20021;-78
2022/12/20 06:30:19;;;;;;;1.63;0.80;;;14.70;65.80;;;;;;5018845;28;20412;-76
2022/12/20 06:32:45;;;;;;;1.83;1.00;;;14.60;65.60;;;;;;4994863;28;20034;-76
2022/12/20 06:35:11;;;;;;;1.80;1.08;;;14.70;65.70;;;;;;5012258;28;20075;-76
2022/12/20 06:37:39;;;;;;;1.33;1.10;;;14.60;65.70;;;;;;5012177;28;20439;-77
2022/12/20 06:40:06;;;;;;;1.30;1.05;;;14.70;65.80;;;;;;5012285;28;20489;-77
2022/12/20 06:42:32;;;;;;;4.60;0.88;;;14.70;65.60;;;;;;5012138;28;20026;-76
2022/12/20 06:44:58;;;;;;;0.60;0.60;;;14.70;65.70;;;;;;5012433;28;20033;-76
2022/12/20 06:47:23;;;;;;;2.13;1.10;;;14.70;65.70;;;;;;5012369;28;20018;-76
2022/12/20 06:49:49;;;;;;;1.42;0.93;;;14.70;65.70;;;;;;5012432;28;20120;-77
2022/12/20 06:52:14;;;;;;;2.65;1.00;;;14.70;65.70;;;;;;5012214;28;20084;-77
2022/12/20 06:54:40;;;;;;;2.67;1.10;;;14.70;65.60;;;;;;5012209;28;20448;-77
2022/12/20 06:57:06;;;;;;;0.80;0.77;;;14.70;65.60;;;;;;5012152;28;20397;-76
2022/12/20 06:59:32;;;;;;;1.95;1.10;;;14.70;65.60;;;;;;5012221;28;20396;-76
2022/12/20 07:01:57;;;;;;;1.55;0.90;;;14.70;65.60;;;;;;5012232;28;20042;-76
2022/12/20 07:04:23;;;;;;;1.02;0.80;;;14.70;65.70;;;;;;5012368;28;20034;-76
2022/12/20 07:06:48;;;;;;;1.48;1.00;;;14.70;65.60;;;;;;5012343;28;20022;-76
2022/12/20 07:09:15;;;;;;;1.40;0.82;;;14.70;65.50;;;;;;5012092;28;20024;-76
2022/12/20 07:11:42;;;;;;;1.33;0.70;;;14.70;65.50;;;;;;4994570;28;20581;-76
2022/12/20 07:14:08;;;;;;;1.35;1.17;;;14.70;65.50;;;;;;5012255;28;20022;-77
2022/12/20 07:16:34;;;;;;;1.15;0.90;;;14.70;65.50;;;;;;5012222;28;20033;-76
2022/12/20 07:19:00;;;;;;;1.25;1.15;;;14.70;65.60;;;;;;5012027;28;20088;-77
2022/12/20 07:21:26;;;;;;;2.67;0.85;;;14.70;65.50;;;;;;4994451;28;20026;-79
2022/12/20 07:23:53;;;;;;;1.50;1.00;;;14.70;65.60;;;;;;4994511;28;20033;-79
2022/12/20 07:26:19;;;;;;;1.25;0.80;;;14.70;65.70;;;;;;5012030;28;20104;-80
2022/12/20 07:28:44;;;;;;;1.15;0.77;;;14.70;65.50;;;;;;5011660;28;20112;-79
2022/12/20 07:31:11;;;;;;;2.38;0.80;;;;;;;;;;5011925;28;20508;-80
2022/12/20 07:33:37;;;;;;;2.60;0.88;;;14.80;65.30;;;;;;5011958;28;20029;-80
2022/12/20 07:36:11;;;;;;;1.38;0.82;;;14.80;66.00;;;;;;5011949;28;20026;-80
2022/12/20 07:38:37;;;;;;;2.55;0.80;;;14.80;66.00;;;;;;5012081;28;20022;-80
2022/12/20 07:41:14;;;;;;;3.03;1.00;;;14.80;66.30;;;;;;5012622;28;20026;-81
2022/12/20 07:43:40;;;;;;;1.50;1.10;;;14.80;66.20;;;;;;5015515;28;20030;-81
2022/12/20 07:46:06;;;;;;;2.70;0.90;;;14.80;66.30;;;;;;5015335;28;20493;-78
2022/12/20 07:48:33;;;;;;;1.95;0.90;;;14.80;66.30;;;;;;4997663;28;20014;-79
2022/12/20 07:51:03;;;;;;;1.80;0.80;;;14.90;66.30;;;;;;4997763;28;20559;-79
2022/12/20 07:53:30;;;;;;;;;;;14.90;66.40;;;;;;4998135;28;20076;-79
2022/12/20 07:55:57;;;;;;;1.40;0.80;;;14.90;66.30;;;;;;5015424;28;19905;-78
2022/12/20 07:58:24;;;;;;;1.15;0.60;;;14.90;66.20;;;;;;5015648;28;20018;-77
2022/12/20 08:00:50;;;;;;;3.65;1.10;;;14.90;66.20;;;;;;5014970;28;20026;-77
2022/12/20 08:03:19;;;;;;;2.45;0.95;;;14.90;66.20;;;;;;5014708;28;20145;-78
2022/12/20 08:05:49;;;;;;;1.65;1.02;;;14.90;66.30;;;;;;5015272;28;20085;-78
2022/12/20 08:08:16;;;;;;;1.63;1.25;;;15.00;66.20;;;;;;5014955;28;20014;-77
2022/12/20 08:10:42;;;;;;;0.80;0.77;;;15.00;66.10;;;;;;5014719;28;20034;-78
2022/12/20 08:13:08;;;;;;;3.90;1.10;;;15.00;66.10;;;;;;5014653;28;20026;-78
2022/12/20 08:15:35;;;;;;;3.95;0.85;;;15.00;66.10;;;;;;5014836;28;20120;-78
2022/12/20 08:18:01;;;;;;;1.02;0.93;;;15.00;66.00;;;;;;5014780;28;20503;-78
2022/12/20 08:20:27;;;;;;;1.70;0.90;;;15.00;66.00;;;;;;5014705;28;20037;-78
2022/12/20 08:22:53;;;;;;;1.85;0.70;;;15.00;66.00;;;;;;5014627;28;20022;-78
2022/12/20 08:25:20;;;;;;;2.95;1.10;;;15.00;66.00;;;;;;5014551;28;20073;-78
2022/12/20 08:27:46;;;;;;;1.88;0.90;;;15.00;66.00;;;;;;5014372;28;20034;-78
2022/12/20 08:30:12;;;;;;;4.03;0.77;;;15.00;66.00;;;;;;5014355;28;20038;-77
2022/12/20 08:32:38;;;;;;;2.33;0.60;;;14.90;65.80;;;;;;5014485;28;20120;-77
2022/12/20 08:35:05;;;;;;;1.88;1.08;;;15.00;66.00;;;;;;4996717;28;20486;-77
2022/12/20 08:37:31;;;;;;;2.38;1.00;;;15.00;66.00;;;;;;5014486;28;20477;-77
2022/12/20 08:39:57;;;;;;;1.35;0.80;;;;;;;;;;5014494;28;20068;-78
2022/12/20 08:42:23;;;;;;;2.63;0.82;;;15.00;65.60;;;;;;5014223;28;20034;-78
2022/12/20 08:44:48;;;;;;;2.80;1.02;;;15.00;66.20;;;;;;5014184;28;20071;-78
2022/12/20 08:47:14;;;;;;;1.30;0.88;;;15.10;66.30;;;;;;4996735;28;20026;-78
2022/12/20 08:49:40;;;;;;;3.25;0.90;;;15.10;66.40;;;;;;5014316;28;20026;-79
2022/12/20 08:52:05;;;;;;;1.30;0.88;;;15.10;66.30;;;;;;5013961;28;20042;-78
2022/12/20 08:54:31;;;;;;;1.08;0.85;;;15.10;66.20;;;;;;4996378;28;20014;-78
2022/12/20 08:56:57;;;;;;;2.47;0.82;;;15.10;66.30;;;;;;4996369;28;20117;-78
2022/12/20 08:59:22;;;;;;;3.13;1.08;;;15.10;66.20;;;;;;4996569;28;20099;-78
2022/12/20 09:01:49;;;;;;;4.50;1.00;;;15.10;66.30;;;;;;4995921;28;20032;-77
2022/12/20 09:04:15;;;;;;;1.83;0.65;;;15.10;66.20;;;;;;4996370;28;20026;-77
2022/12/20 09:06:40;;;;;;;2.33;0.85;;;15.10;66.20;;;;;;5013768;28;20116;-77
2022/12/20 09:09:06;;;;;;;1.42;0.60;;;15.20;66.20;;;;;;4996075;28;20093;-77
2022/12/20 09:11:33;;;;;;;2.92;1.30;;;15.10;66.30;;;;;;5013980;28;20053;-78
2022/12/20 09:13:59;;;;;;;1.83;0.93;;;15.10;66.30;;;;;;4996498;28;20022;-78
2022/12/20 09:16:29;;;;;;;2.22;1.35;;;15.10;79.90;;;;;;5013577;28;20469;-78
2022/12/20 09:18:57;;;;;;;3.40;1.23;;;15.20;66.20;;;;;;4996029;28;20025;-78
2022/12/20 09:21:22;;;;;;;1.55;0.95;;;15.20;66.10;;;;;;5013860;28;20072;-78
2022/12/20 09:23:53;;;;;;;4.10;1.30;;;15.20;66.10;;;;;;5013541;28;20022;-78
2022/12/20 09:26:20;;;;;;;1.52;1.10;;;15.20;66.10;;;;;;5013529;28;20492;-77
2022/12/20 09:28:47;;;;;;;1.25;0.82;;;15.20;66.10;;;;;;5013346;28;20026;-78
2022/12/20 09:31:19;;;;;;;3.45;1.30;;;15.20;66.10;;;;;;5013460;28;20113;-77
2022/12/20 09:33:45;;;;;;;2.55;1.00;;;15.20;66.20;;;;;;5013556;28;20399;-77
2022/12/20 09:36:12;;;;;;;0.80;0.80;;;15.20;66.00;;;;;;4995746;28;20121;-78
2022/12/20 09:38:38;;;;;;;1.55;0.88;;;15.30;66.10;;;;;;5013307;28;20026;-78
2022/12/20 09:41:06;;;;;;;1.23;0.77;;;15.20;65.90;;;;;;5013383;28;20026;-78
2022/12/20 09:43:33;;;;;;;1.88;1.05;;;15.20;66.00;;;;;;5013394;28;20033;-79
2022/12/20 09:46:02;;;;;;;1.95;0.77;;;15.30;66.10;;;;;;5013428;28;20037;-78
2022/12/20 09:48:32;;;;;;;1.42;0.90;;;15.20;66.00;;;;;;5013188;28;20030;-77
2022/12/20 09:51:29;;;;;;;2.63;1.30;;;15.20;66.00;;;;;;5013018;28;20046;-78
2022/12/20 09:54:27;;;;;;;2.05;1.00;;;15.20;65.90;;;;;;5012970;28;20033;-78
2022/12/20 09:57:16;;;;;;;1.85;0.95;;;15.20;66.10;;;;;;5012940;28;20408;-78
2022/12/20 09:59:43;;;;;;;5.53;1.30;;;15.20;66.20;;;;;;5013025;28;20033;-78
2022/12/20 10:02:11;;;;;;;2.40;1.00;;;15.20;66.30;;;;;;5012647;28;20128;-78
2022/12/20 10:04:38;;;;;;;2.55;0.90;;;15.20;66.20;;;;;;5012159;28;20033;-78
2022/12/20 10:07:03;;;;;;;2.35;1.10;;;15.20;66.20;;;;;;4995254;28;20104;-78
2022/12/20 10:09:47;;;;;;;5.65;1.08;;;15.20;66.30;;;;;;5013040;28;20144;-78
2022/12/20 10:12:20;;;;;;;4.28;1.13;;;15.20;66.10;;;;;;5011612;28;20029;-78
2022/12/20 10:15:27;;;;;;;3.35;0.98;;;15.20;66.20;;;;;;4995308;28;20113;-78
2022/12/20 10:18:05;;;;;;;1.95;1.08;;;15.20;66.20;;;;;;4989521;28;20397;-78
2022/12/20 10:20:59;;;;;;;1.20;0.85;;;15.20;66.10;;;;;;5012544;28;20057;-78
2022/12/20 10:23:55;;;;;;;2.65;1.25;;;15.20;66.00;;;;;;5012473;28;20030;-78
2022/12/20 10:26:22;;;;;;;3.60;1.02;;;15.20;66.10;;;;;;5012714;28;20481;-78
2022/12/20 10:28:47;;;;;;;1.58;0.77;;;15.20;66.00;;;;;;5012423;28;20026;-78
2022/12/20 10:31:15;;;;;;;3.50;1.13;;;15.20;66.00;;;;;;5012325;28;20041;-78
2022/12/20 10:33:41;;;;;;;1.48;0.73;;;15.20;66.10;;;;;;5012505;28;20109;-78
2022/12/20 10:36:30;;;;;;;1.25;0.70;;;15.10;66.00;;;;;;5012506;28;20029;-78
2022/12/20 10:39:02;;;;;;;1.52;0.80;;;15.20;66.10;;;;;;5012373;28;20076;-78
2022/12/20 10:41:40;;;;;;;1.90;0.90;;;15.20;66.10;;;;;;5012316;28;20022;-78
2022/12/20 10:44:15;;;;;;;1.92;0.95;;;15.20;66.20;;;;;;5012462;28;20389;-78
2022/12/20 10:46:47;;;;;;;1.30;0.82;;;15.20;66.30;;;;;;5012374;28;20088;-78
2022/12/20 10:49:38;;;;;;;2.25;1.00;;;15.20;66.20;;;;;;5012324;28;20029;-78
2022/12/20 10:52:07;;;;;;;1.70;0.80;;;15.10;66.10;;;;;;5012445;28;20064;-78
2022/12/20 10:54:38;;;;;;;1.30;0.90;;;15.10;66.30;;;;;;5010946;28;20022;-78
2022/12/20 10:57:34;;;;;;;1.52;0.93;;;15.10;66.00;;;;;;5012436;28;20026;-78
2022/12/20 11:00:04;;;;;;;2.40;1.33;;;15.40;66.40;;;;;;4999357;28;20045;-77
2022/12/20 11:02:32;;;;;;;1.70;0.88;;;15.20;66.20;;;;;;4994388;28;20053;-77
2022/12/20 11:05:02;;;;;;;1.40;1.05;;;15.10;66.20;;;;;;5012340;28;20029;-78
2022/12/20 11:07:31;;;;;;;2.70;1.17;;;15.20;66.20;;;;;;5011062;28;20099;-77
2022/12/20 11:10:00;;;;;;;1.85;0.70;;;15.10;66.10;;;;;;4994335;28;20126;-78
2022/12/20 11:12:26;;;;;;;2.05;1.13;;;15.20;66.10;;;;;;5012121;28;20076;-78
2022/12/20 11:15:09;;;;;;;1.02;0.93;;;15.20;66.30;;;;;;4994867;28;20501;-77
2022/12/20 11:17:47;;;;;;;1.98;0.95;;;15.20;66.20;;;;;;4997917;28;20024;-77
2022/12/20 11:20:25;;;;;;;1.38;0.90;;;15.20;66.20;;;;;;4998102;28;20034;-78
2022/12/20 11:23:06;;;;;;;2.33;0.75;;;15.20;66.30;;;;;;5015689;28;20022;-78
2022/12/20 11:25:32;;;;;;;1.20;0.75;;;;;;;;;;5015640;28;20025;-78
2022/12/20 11:28:28;;;;;;;2.92;0.70;;;15.20;65.50;;;;;;5015657;28;20029;-78
2022/12/20 11:31:03;;;;;;;1.55;1.00;;;15.20;66.20;;;;;;4997759;28;20088;-78
2022/12/20 11:33:34;;;;;;;1.98;0.98;;;15.20;66.10;;;;;;5015449;28;20057;-78
2022/12/20 11:36:00;;;;;;;1.75;1.30;;;15.20;66.10;;;;;;5015655;28;20488;-78
2022/12/20 11:38:39;;;;;;;1.85;0.90;;;15.20;66.30;;;;;;5014258;28;20018;-78
2022/12/20 11:41:09;;;;;;;2.15;1.10;;;15.20;66.20;;;;;;4997965;28;20022;-78
2022/12/20 11:43:47;;;;;;;1.60;0.98;;;15.20;66.30;;;;;;5014427;28;20393;-78
2022/12/20 11:46:19;;;;;;;4.47;1.55;;;15.20;66.50;;;;;;5014574;28;20057;-77
2022/12/20 11:49:21;;;;;;;1.35;0.90;;;15.20;66.40;;;;;;5015201;28;20020;-78
2022/12/20 11:51:48;;;;;;;2.42;1.30;;;15.20;66.40;;;;;;5015339;28;20045;-78
2022/12/20 11:54:25;;;;;;;1.38;1.00;;;15.20;66.40;;;;;;4997627;28;20109;-78
2022/12/20 11:56:55;;;;;;;1.05;0.95;;;15.20;66.60;;;;;;5015133;28;20041;-78
2022/12/20 11:59:30;;;;;;;;;;;15.20;66.50;;;;;;5015535;28;20049;-78
2022/12/20 12:02:24;;;;;;;2.67;1.10;;;15.20;66.50;;;;;;5014845;28;19910;-78
2022/12/20 12:05:01;;;;;;;1.08;1.00;;;15.20;66.40;;;;;;5014825;28;20104;-78
2022/12/20 12:07:33;;;;;;;1.83;1.30;;;15.20;66.50;;;;;;4997230;28;20109;-78
2022/12/20 12:10:05;;;;;;;1.35;1.02;;;15.20;66.50;;;;;;4996977;28;20022;-78
2022/12/20 12:12:36;;;;;;;2.97;1.08;;;15.20;66.30;;;;;;4997078;28;20026;-77
2022/12/20 12:15:14;;;;;;;3.00;1.20;;;15.20;66.60;;;;;;4996943;28;20507;-78
2022/12/20 12:17:47;;;;;;;3.05;1.23;;;15.20;66.60;;;;;;5014726;28;20028;-78
2022/12/20 12:20:35;;;;;;;1.63;0.93;;;15.20;66.60;;;;;;5014524;28;20393;-78
2022/12/20 12:23:40;;;;;;;1.65;0.90;;;15.20;66.40;;;;;;5014457;28;20030;-78
2022/12/20 12:26:20;;;;;;;1.92;1.08;;;15.20;66.40;;;;;;5014473;28;20026;-78
2022/12/20 12:28:54;;;;;;;2.42;1.23;;;15.20;66.60;;;;;;5014045;28;20041;-78
2022/12/20 12:31:59;;;;;;;1.20;1.10;;;15.20;66.60;;;;;;5014382;28;20061;-78
2022/12/20 12:34:46;;;;;;;1.88;1.35;;;15.10;80.20;;;;;;5014407;28;20472;-78
2022/12/20 12:37:39;;;;;;;1.52;1.20;;;15.20;66.60;;;;;;4996942;28;20232;-75
2022/12/20 12:40:46;;;;;;;1.90;1.15;;;15.20;66.50;;;;;;5014536;28;20026;-74
2022/12/20 12:43:20;;;;;;;1.73;1.08;;;15.20;66.60;;;;;;5014456;28;20033;-75
2022/12/20 12:45:54;;;;;;;2.13;1.13;;;15.20;66.60;;;;;;5013174;28;20488;-75
2022/12/20 12:48:42;;;;;;;2.10;1.10;;;15.20;66.70;;;;;;4996842;28;20022;-74
2022/12/20 12:51:08;;;;;;;2.30;1.13;;;15.20;66.50;;;;;;5014195;28;20120;-75
2022/12/20 12:53:49;;;;;;;2.60;1.15;;;15.20;66.60;;;;;;5014297;28;20026;-75
2022/12/20 12:56:27;;;;;;;1.45;0.80;;;15.20;66.90;;;;;;4996707;28;20022;-75
2022/12/20 12:59:05;;;;;;;1.88;1.00;;;15.20;66.50;;;;;;5014213;28;20057;-75
2022/12/20 13:01:48;;;;;;;3.38;1.05;;;15.20;66.60;;;;;;5013905;28;20503;-75
2022/12/20 13:04:20;;;;;;;0.80;0.73;;;15.20;66.50;;;;;;5014109;28;20040;-74
2022/12/20 13:06:59;;;;;;;1.67;0.82;;;15.20;66.50;;;;;;5014036;28;20018;-75
2022/12/20 13:09:25;;;;;;;1.55;1.00;;;15.20;66.60;;;;;;5014213;28;20018;-75
2022/12/20 13:11:55;;;;;;;1.27;1.02;;;15.20;66.50;;;;;;5013981;28;20488;-74
2022/12/20 13:14:23;;;;;;;1.10;1.00;;;15.20;66.40;;;;;;5014135;28;20380;-75